Time;durP1;ratioP1;P1;durP2;ratioP2;P2;SDS_P1;SDS_P2;PMS_P1;PMS_P2;Temp;Humidity;BMP_temperature;BMP_pressure;BME280_temperature;BME280_humidity;BME280_pressure;Samples;Min_cycle;Max_cycle;Signal;HPM_P1;HPM_P2
2024/04/18 00:01:18;;;;;;;0.30;0.20;;;;;;;6.77;100.00;99842.97;5452484;26;21029;-47
2024/04/18 00:03:45;;;;;;;0.30;0.20;;;;;;;6.69;100.00;99841.38;5452390;26;20533;-48
2024/04/18 00:06:12;;;;;;;0.30;0.20;;;;;;;6.78;100.00;99838.56;5452631;26;20576;-46
2024/04/18 00:08:38;;;;;;;0.30;0.20;;;;;;;6.71;100.00;99845.72;5450177;26;20529;-49
2024/04/18 00:11:05;;;;;;;0.30;0.20;;;;;;;6.75;100.00;99842.16;5404988;26;20890;-47
2024/04/18 00:13:31;;;;;;;0.30;0.20;;;;;;;6.75;100.00;99842.16;5451016;26;21137;-47
2024/04/18 00:15:58;;;;;;;0.30;0.20;;;;;;;6.70;100.00;99838.72;5452660;26;20478;-46
2024/04/18 00:18:24;;;;;;;0.30;0.20;;;;;;;6.75;100.00;99838.63;5452187;26;21089;-48
2024/04/18 00:20:51;;;;;;;0.30;0.20;;;;;;;6.80;100.00;99842.91;5452439;26;20933;-47
2024/04/18 00:23:18;;;;;;;0.30;0.20;;;;;;;6.77;100.00;99842.13;5451891;26;20473;-47
2024/04/18 00:25:44;;;;;;;0.30;0.20;;;;;;;6.72;100.00;99841.34;5452353;26;20482;-47
2024/04/18 00:28:11;;;;;;;0.30;0.20;;;;;;;6.68;100.00;99837.88;5452140;26;20834;-47
2024/04/18 00:30:41;;;;;;;0.30;0.20;;;;;;;6.93;100.00;99840.03;5452244;26;20474;-47
2024/04/18 00:33:08;;;;;;;0.30;0.20;;;;;;;6.68;100.00;99840.50;5451964;26;20477;-48
2024/04/18 00:35:35;;;;;;;0.30;0.20;;;;;;;6.88;100.00;99847.19;5452135;26;20466;-47
2024/04/18 00:38:02;;;;;;;0.30;0.20;;;;;;;7.05;100.00;99856.47;5451705;26;20470;-47
2024/04/18 00:40:28;;;;;;;0.30;0.20;;;;;;;7.40;100.00;99844.25;5438559;26;20530;-47
2024/04/18 00:42:55;;;;;;;0.30;0.20;;;;;;;7.17;100.00;99850.06;5451550;26;20596;-47
2024/04/18 00:45:22;;;;;;;0.30;0.20;;;;;;;7.30;100.00;99845.38;5451965;26;20817;-47
2024/04/18 00:47:49;;;;;;;0.30;0.20;;;;;;;7.67;100.00;99846.25;5451576;26;20482;-47
2024/04/18 00:50:18;;;;;;;0.30;0.20;;;;;;;7.28;100.00;99848.06;5434032;26;20486;-47
2024/04/18 00:52:46;;;;;;;0.30;0.20;;;;;;;7.09;100.00;99836.13;5420436;26;20869;-48
2024/04/18 00:55:13;;;;;;;0.30;0.20;;;;;;;6.85;100.00;99845.44;5451787;26;20628;-48
2024/04/18 00:57:40;;;;;;;0.30;0.20;;;;;;;6.90;100.00;99851.53;5451436;26;20474;-47
2024/04/18 01:00:08;;;;;;;0.30;0.20;;;;;;;6.99;100.00;99838.13;5451736;26;20473;-47
2024/04/18 01:02:35;;;;;;;0.30;0.20;;;;;;;7.08;100.00;99837.03;5439822;26;20602;-47
2024/04/18 01:05:02;;;;;;;0.30;0.20;;;;;;;6.78;100.00;99843.84;5415958;26;20522;-48
2024/04/18 01:07:29;;;;;;;0.30;0.20;;;;;;;6.84;100.00;99849.84;5451265;26;20477;-48
2024/04/18 01:09:55;;;;;;;0.30;0.20;;;;;;;6.91;100.00;99847.09;5448866;26;21018;-47
2024/04/18 01:12:22;;;;;;;0.30;0.20;;;;;;;6.87;100.00;99854.25;5451024;26;20565;-48
2024/04/18 01:14:48;;;;;;;0.30;0.20;;;;;;;6.72;100.00;99849.28;5451352;26;20530;-46
2024/04/18 01:17:15;;;;;;;0.30;0.20;;;;;;;7.09;100.00;99849.34;5451281;26;20473;-48
2024/04/18 01:19:42;;;;;;;0.30;0.20;;;;;;;7.21;100.00;99838.50;5451574;26;20526;-47
2024/04/18 01:22:08;;;;;;;0.30;0.20;;;;;;;7.18;100.00;99848.28;5451044;26;20526;-47
2024/04/18 01:24:35;;;;;;;0.30;0.20;;;;;;;7.24;100.00;99851.66;5454029;26;21017;-47
2024/04/18 01:27:02;;;;;;;0.30;0.20;;;;;;;7.05;100.00;99856.47;5454659;26;20473;-47
2024/04/18 01:29:28;;;;;;;0.30;0.10;;;;;;;7.24;100.00;99856.06;5454992;26;20477;-47
2024/04/18 01:31:55;;;;;;;0.30;0.20;;;;;;;7.05;100.00;99855.63;5454542;26;20968;-48
2024/04/18 01:34:21;;;;;;;0.30;0.20;;;;;;;7.30;100.00;99855.97;5454574;26;21005;-47
2024/04/18 01:36:48;;;;;;;0.30;0.20;;;;;;;7.26;100.00;99863.06;5454442;26;20545;-47
2024/04/18 01:39:15;;;;;;;0.30;0.10;;;;;;;7.32;100.00;99864.72;5443630;26;20491;-47
2024/04/18 01:41:42;;;;;;;0.30;0.20;;;;;;;7.13;100.00;99862.50;5451520;26;20473;-46
2024/04/18 01:44:08;;;;;;;0.30;0.20;;;;;;;7.30;100.00;99866.53;5454673;26;20577;-48
2024/04/18 01:46:35;;;;;;;0.30;0.20;;;;;;;6.97;100.00;99868.97;5454401;26;20470;-48
2024/04/18 01:49:01;;;;;;;0.30;0.20;;;;;;;7.19;100.00;99869.41;5454701;26;21034;-48
2024/04/18 01:51:28;;;;;;;0.30;0.20;;;;;;;7.09;100.00;99871.38;5416966;26;20892;-48
2024/04/18 01:53:55;;;;;;;0.30;0.20;;;;;;;7.15;100.00;99874.81;5439432;26;20539;-47
2024/04/18 01:56:21;;;;;;;0.30;0.20;;;;;;;7.37;100.00;99873.41;5454068;26;21042;-48
2024/04/18 01:58:48;;;;;;;0.30;0.20;;;;;;;7.13;100.00;99880.13;5454334;26;20591;-47
2024/04/18 02:01:15;;;;;;;0.30;0.20;;;;;;;7.43;100.00;99874.16;5452331;26;20514;-48
2024/04/18 02:03:41;;;;;;;0.30;0.20;;;;;;;7.00;98.95;99879.50;5454893;26;21126;-48
2024/04/18 02:06:08;;;;;;;0.30;0.20;;;;;;;7.15;98.13;99882.72;5453970;26;21119;-47
2024/04/18 02:08:35;;;;;;;0.30;0.20;;;;;;;7.11;98.73;99887.19;5452986;26;20512;-48
2024/04/18 02:11:01;;;;;;;0.30;0.20;;;;;;;7.22;98.55;99879.91;5453851;26;20466;-48
2024/04/18 02:13:28;;;;;;;0.30;0.20;;;;;;;7.30;98.96;99887.69;5454084;26;20542;-48
2024/04/18 02:15:54;;;;;;;0.30;0.20;;;;;;;7.10;98.69;99891.59;5453906;26;20466;-47
2024/04/18 02:18:21;;;;;;;0.30;0.20;;;;;;;6.97;98.33;99890.13;5454122;26;20878;-47
2024/04/18 02:20:48;;;;;;;0.30;0.20;;;;;;;6.95;99.71;99888.41;5453796;26;20522;-48
2024/04/18 02:23:14;;;;;;;0.30;0.20;;;;;;;7.16;99.92;99887.97;5454102;26;20534;-48
2024/04/18 02:25:41;;;;;;;0.30;0.20;;;;;;;7.17;99.22;99891.50;5406324;26;20481;-48
2024/04/18 02:28:07;;;;;;;0.30;0.20;;;;;;;6.83;99.47;99893.03;5453702;26;20473;-48
2024/04/18 02:30:34;;;;;;;0.30;0.20;;;;;;;7.15;99.99;99891.53;5453827;26;20474;-48
2024/04/18 02:33:00;;;;;;;0.30;0.20;;;;;;;6.96;100.00;99887.50;5453513;26;20537;-47
2024/04/18 02:35:27;;;;;;;0.30;0.20;;;;;;;6.93;99.27;99888.44;5452633;26;20525;-48
2024/04/18 02:37:54;;;;;;;0.30;0.17;;;;;;;7.22;98.99;99889.59;5453599;26;20579;-48
2024/04/18 02:40:20;;;;;;;0.30;0.13;;;;;;;6.96;98.93;99892.78;5439928;26;20470;-47
2024/04/18 02:42:47;;;;;;;0.30;0.20;;;;;;;6.82;100.00;99896.56;5453382;26;20534;-48
2024/04/18 02:45:13;;;;;;;0.30;0.20;;;;;;;7.16;99.63;99895.03;5453730;26;20533;-48
2024/04/18 02:47:40;;;;;;;0.30;0.20;;;;;;;6.96;100.00;99885.72;5405054;26;21112;-47
2024/04/18 02:50:07;;;;;;;0.30;0.20;;;;;;;7.06;99.46;99891.72;5438121;26;20533;-48
2024/04/18 02:52:34;;;;;;;0.30;0.20;;;;;;;6.98;100.00;99898.91;5419896;26;20478;-47
2024/04/18 02:55:00;;;;;;;0.30;0.20;;;;;;;7.08;100.00;99895.19;5453702;26;20474;-46
2024/04/18 02:57:28;;;;;;;0.30;0.10;;;;;;;7.11;100.00;99892.47;5453215;26;20469;-47
2024/04/18 02:59:55;;;;;;;0.30;0.10;;;;;;;6.95;100.00;99894.56;5453447;26;20530;-47
2024/04/18 03:02:23;;;;;;;0.30;0.20;;;;;;;6.94;100.00;99899.88;5453137;26;20478;-47
2024/04/18 03:04:50;;;;;;;0.30;0.20;;;;;;;7.05;100.00;99895.25;5453465;26;20474;-47
2024/04/18 03:07:16;;;;;;;0.30;0.20;;;;;;;7.08;100.00;99900.47;5453182;26;20465;-47
2024/04/18 03:09:43;;;;;;;0.30;0.20;;;;;;;7.05;100.00;99904.06;5450922;26;20522;-47
2024/04/18 03:12:10;;;;;;;0.30;0.20;;;;;;;6.97;100.00;99905.09;5453027;26;20469;-47
2024/04/18 03:14:36;;;;;;;0.30;0.20;;;;;;;7.19;100.00;99903.75;5453531;26;20598;-48
2024/04/18 03:17:03;;;;;;;0.30;0.20;;;;;;;7.25;99.33;99906.25;5453373;26;20530;-47
2024/04/18 03:19:29;;;;;;;0.30;0.10;;;;;;;6.96;100.00;99903.34;5453316;26;20547;-48
2024/04/18 03:21:56;;;;;;;0.30;0.20;;;;;;;7.02;100.00;99912.03;5453179;26;20885;-47
2024/04/18 03:24:23;;;;;;;0.30;0.20;;;;;;;6.96;100.00;99903.34;5453451;26;20477;-48
2024/04/18 03:26:52;;;;;;;0.30;0.10;;;;;;;6.69;100.00;99913.56;5453745;26;20898;-47
2024/04/18 03:29:18;;;;;;;0.30;0.20;;;;;;;6.81;100.00;99915.09;5453644;26;20513;-47
2024/04/18 03:31:47;;;;;;;0.30;0.20;;;;;;;6.93;100.00;99917.50;5452804;26;20512;-48
2024/04/18 03:34:14;;;;;;;0.30;0.20;;;;;;;6.86;100.00;99917.69;5452882;26;20903;-48
2024/04/18 03:36:52;;;;;;;1.23;1.23;;;;;;;6.97;100.00;99913.88;5452909;26;20466;-47
2024/04/18 03:39:19;;;;;;;0.30;0.20;;;;;;;6.97;100.00;99923.59;5440855;26;20527;-48
2024/04/18 03:41:47;;;;;;;0.30;0.20;;;;;;;6.75;100.00;99925.78;5450146;26;21037;-47
2024/04/18 03:44:14;;;;;;;0.30;0.20;;;;;;;6.62;100.00;99925.16;5452790;26;20470;-48
2024/04/18 03:46:41;;;;;;;0.30;0.20;;;;;;;6.72;100.00;99928.50;5452633;26;20537;-47
2024/04/18 03:49:07;;;;;;;0.30;0.20;;;;;;;6.76;100.00;99932.81;5452245;26;20466;-48
2024/04/18 03:51:34;;;;;;;0.30;0.20;;;;;;;6.78;100.00;99931.88;5416568;26;20587;-48
2024/04/18 03:54:01;;;;;;;0.30;0.17;;;;;;;6.75;100.00;99931.94;5440634;26;20545;-47
2024/04/18 03:56:28;;;;;;;0.30;0.20;;;;;;;6.45;100.00;99938.66;5405270;26;20587;-47
2024/04/18 03:58:55;;;;;;;0.30;0.20;;;;;;;6.47;100.00;99943.91;5452941;26;20474;-49
2024/04/18 04:01:25;;;;;;;0.30;0.20;;;;;;;6.45;100.00;99943.94;5453079;26;20518;-46
2024/04/18 04:03:52;;;;;;;0.30;0.20;;;;;;;6.46;100.00;99942.19;5452538;26;20591;-47
2024/04/18 04:06:20;;;;;;;0.30;0.10;;;;;;;6.39;100.00;99945.81;5453111;26;20964;-47
2024/04/18 04:08:48;;;;;;;0.30;0.20;;;;;;;6.43;100.00;99944.84;5449947;26;20477;-47
2024/04/18 04:11:15;;;;;;;0.30;0.20;;;;;;;6.41;100.00;99952.78;5453113;26;20474;-47
2024/04/18 04:13:42;;;;;;;0.30;0.20;;;;;;;6.51;100.00;99949.09;5452958;26;20528;-48
2024/04/18 04:16:09;;;;;;;0.30;0.20;;;;;;;6.54;100.00;99954.31;5453064;26;20474;-48
2024/04/18 04:18:35;;;;;;;0.30;0.10;;;;;;;6.75;100.00;99963.66;5452720;26;20537;-47
2024/04/18 04:21:02;;;;;;;0.30;0.20;;;;;;;7.04;100.00;99965.72;5452611;26;20473;-47
2024/04/18 04:23:29;;;;;;;0.30;0.20;;;;;;;7.02;100.00;99962.25;5452642;26;20481;-48
2024/04/18 04:25:56;;;;;;;0.30;0.20;;;;;;;7.37;100.00;99965.94;5452579;26;20470;-47
2024/04/18 04:28:22;;;;;;;0.30;0.20;;;;;;;7.12;100.00;99969.06;5404447;26;20624;-48
2024/04/18 04:30:49;;;;;;;0.30;0.20;;;;;;;7.22;100.00;99974.19;5452149;26;20466;-48
2024/04/18 04:33:16;;;;;;;0.30;0.20;;;;;;;7.34;100.00;99974.81;5451472;26;20478;-48
2024/04/18 04:35:42;;;;;;;0.30;0.20;;;;;;;7.05;100.00;99979.81;5452142;26;20591;-48
2024/04/18 04:38:09;;;;;;;0.30;0.20;;;;;;;7.10;100.00;99986.75;5452046;26;20533;-47
2024/04/18 04:40:36;;;;;;;0.30;0.10;;;;;;;7.06;100.00;99992.13;5436921;26;20466;-48
2024/04/18 04:43:03;;;;;;;0.30;0.20;;;;;;;6.99;100.00;99996.66;5451673;26;21144;-48
2024/04/18 04:45:29;;;;;;;0.30;0.20;;;;;;;6.98;100.00;99996.66;5451928;26;20545;-47
2024/04/18 04:47:56;;;;;;;0.30;0.20;;;;;;;6.82;100.00;99996.09;5451468;26;20566;-48
2024/04/18 04:50:23;;;;;;;0.30;0.10;;;;;;;6.70;100.00;100005.09;5430485;26;20833;-47
2024/04/18 04:52:50;;;;;;;0.30;0.10;;;;;;;6.72;100.00;100008.59;5422084;26;20478;-47
2024/04/18 04:55:17;;;;;;;0.30;0.20;;;;;;;6.74;100.00;100016.50;5451916;26;20473;-47
2024/04/18 04:57:43;;;;;;;0.30;0.20;;;;;;;6.94;100.00;100018.78;5451617;26;21057;-48
2024/04/18 05:00:10;;;;;;;0.30;0.20;;;;;;;6.90;100.00;100025.03;5455142;26;21131;-48
2024/04/18 05:02:37;;;;;;;0.30;0.20;;;;;;;6.87;100.00;100025.09;5454651;26;21020;-47
2024/04/18 05:05:09;;;;;;;0.30;0.20;;;;;;;6.85;100.00;100027.72;5455412;26;20477;-48
2024/04/18 05:07:35;;;;;;;0.30;0.20;;;;;;;6.84;100.00;100037.41;5455091;26;20481;-47
2024/04/18 05:10:02;;;;;;;0.30;0.20;;;;;;;6.80;100.00;100033.09;5412057;26;20880;-47
2024/04/18 05:12:29;;;;;;;0.30;0.20;;;;;;;6.93;100.00;100041.69;5431726;26;21022;-47
2024/04/18 05:14:55;;;;;;;0.30;0.20;;;;;;;6.87;100.00;100036.53;5424775;26;20469;-47
2024/04/18 05:17:22;;;;;;;0.30;0.20;;;;;;;6.86;100.00;100045.34;5454846;26;20587;-47
2024/04/18 05:19:48;;;;;;;0.30;0.20;;;;;;;6.98;100.00;100052.16;5413094;26;20480;-48
2024/04/18 05:22:15;;;;;;;0.30;0.20;;;;;;;7.04;100.00;100049.41;5450288;26;20465;-47
2024/04/18 05:24:41;;;;;;;0.30;0.20;;;;;;;7.03;100.00;100058.25;5453149;26;20533;-47
2024/04/18 05:27:08;;;;;;;0.30;0.20;;;;;;;6.98;100.00;100054.81;5454818;26;20530;-48
2024/04/18 05:32:20;;;;;;;0.30;0.20;;;;;;;7.09;100.00;100059.00;5454865;26;20534;-47
2024/04/18 05:34:47;;;;;;;0.30;0.20;;;;;;;7.07;100.00;100063.44;5454298;26;20586;-46
2024/04/18 05:37:13;;;;;;;0.30;0.20;;;;;;;7.19;100.00;100067.63;5454758;26;20466;-47
2024/04/18 05:39:41;;;;;;;0.30;0.20;;;;;;;7.18;100.00;100071.19;5438907;26;20922;-47
2024/04/18 05:42:07;;;;;;;0.30;0.20;;;;;;;7.21;100.00;100080.81;5454324;26;20522;-48
2024/04/18 05:44:40;;;;;;;0.93;0.87;;;;;;;7.27;100.00;100078.97;5454464;26;20600;-48
2024/04/18 05:47:08;;;;;;;0.30;0.20;;;;;;;7.27;100.00;100088.66;5454705;26;20583;-48
2024/04/18 05:49:36;;;;;;;0.30;0.20;;;;;;;7.48;100.00;100090.00;5446635;26;21130;-48
2024/04/18 05:52:02;;;;;;;0.30;0.20;;;;;;;7.61;100.00;100096.81;5418690;26;20471;-47
2024/04/18 05:54:30;;;;;;;0.33;0.20;;;;;;;7.53;100.00;100094.28;5448999;26;20473;-49
2024/04/18 05:56:56;;;;;;;0.30;0.20;;;;;;;7.59;100.00;100098.63;5454651;26;21111;-48
2024/04/18 05:59:23;;;;;;;0.30;0.20;;;;;;;8.13;100.00;100101.91;5454216;26;20474;-49
2024/04/18 06:01:49;;;;;;;0.30;0.20;;;;;;;8.26;100.00;100105.16;5454336;26;20472;-48
2024/04/18 06:04:16;;;;;;;0.30;0.10;;;;;;;8.20;100.00;100116.72;5453906;26;20473;-48
2024/04/18 06:06:42;;;;;;;0.30;0.20;;;;;;;8.13;100.00;100114.28;5454355;26;20909;-48
2024/04/18 06:09:09;;;;;;;0.30;0.20;;;;;;;8.37;100.00;100118.19;5451327;26;20489;-47
2024/04/18 06:11:35;;;;;;;0.30;0.20;;;;;;;8.47;99.02;100130.31;5453094;26;20473;-48
2024/04/18 06:14:04;;;;;;;0.30;0.20;;;;;;;8.21;99.29;100133.50;5453845;26;20599;-48
2024/04/18 06:16:33;;;;;;;0.30;0.20;;;;;;;8.54;99.09;100124.84;5454175;26;20457;-48
2024/04/18 06:19:00;;;;;;;0.30;0.20;;;;;;;8.57;98.94;100137.16;5453683;26;21029;-49
2024/04/18 06:21:26;;;;;;;0.30;0.20;;;;;;;8.36;96.98;100133.22;5453888;26;20545;-49
2024/04/18 06:23:53;;;;;;;0.30;0.20;;;;;;;8.28;96.73;100137.75;5453724;26;20481;-49
2024/04/18 06:26:21;;;;;;;0.30;0.20;;;;;;;8.40;96.62;100141.97;5454105;26;20871;-49
2024/04/18 06:28:47;;;;;;;0.30;0.20;;;;;;;8.36;96.43;100143.81;5453792;26;21017;-48
2024/04/18 06:31:16;;;;;;;0.30;0.20;;;;;;;8.40;95.99;100148.13;5454034;26;20811;-48
2024/04/18 06:33:43;;;;;;;0.30;0.20;;;;;;;8.56;95.27;100151.31;5453616;26;21033;-48
2024/04/18 06:36:10;;;;;;;0.30;0.10;;;;;;;8.33;97.18;100151.75;5453796;26;20640;-48
2024/04/18 06:38:37;;;;;;;0.30;0.20;;;;;;;8.51;95.71;100154.06;5451807;26;20477;-48
2024/04/18 06:41:07;;;;;;;0.30;0.20;;;;;;;8.48;96.57;100155.88;5440100;26;21054;-48
2024/04/18 06:43:34;;;;;;;0.30;0.20;;;;;;;8.77;96.15;100155.22;5453387;26;20585;-48
2024/04/18 06:46:00;;;;;;;0.30;0.20;;;;;;;8.74;94.30;100157.94;5453896;26;20470;-47
2024/04/18 06:48:27;;;;;;;0.30;0.20;;;;;;;8.82;94.34;100158.66;5453441;26;20473;-48
2024/04/18 06:50:54;;;;;;;0.30;0.20;;;;;;;8.58;94.25;100170.69;5426150;26;21378;-48
2024/04/18 06:53:20;;;;;;;0.30;0.20;;;;;;;8.72;94.84;100170.38;5431948;26;20530;-48
2024/04/18 06:55:47;;;;;;;0.30;0.20;;;;;;;8.70;95.65;100177.47;5453277;26;20884;-47
2024/04/18 06:58:14;;;;;;;0.30;0.20;;;;;;;8.39;94.21;100177.28;5453654;26;20583;-47
2024/04/18 07:00:41;;;;;;;0.30;0.20;;;;;;;8.57;94.63;100180.41;5453242;26;20474;-48
2024/04/18 07:03:11;;;;;;;0.30;0.20;;;;;;;8.77;95.46;100176.41;5453403;26;20470;-48
2024/04/18 07:05:39;;;;;;;0.30;0.20;;;;;;;8.94;93.76;100187.53;5453541;26;21002;-48
2024/04/18 07:08:05;;;;;;;0.30;0.20;;;;;;;8.38;93.66;100197.63;5453693;26;20474;-48
2024/04/18 07:10:33;;;;;;;0.30;0.20;;;;;;;8.52;94.83;100198.19;5452438;26;20580;-48
2024/04/18 07:13:00;;;;;;;0.30;0.20;;;;;;;8.41;95.14;100197.53;5453371;26;21041;-47
2024/04/18 07:15:26;;;;;;;0.30;0.20;;;;;;;8.59;93.76;100201.56;5453211;26;20510;-47
2024/04/18 07:17:54;;;;;;;0.30;0.20;;;;;;;8.47;93.56;100201.81;5453235;26;20482;-47
2024/04/18 07:20:21;;;;;;;0.30;0.20;;;;;;;8.41;94.09;100213.44;5453101;26;20482;-48
2024/04/18 07:22:48;;;;;;;0.30;0.20;;;;;;;8.59;95.04;100215.69;5452735;26;20473;-48
2024/04/18 07:25:14;;;;;;;0.40;0.20;;;;;;;8.52;93.50;100216.72;5452610;26;20474;-48
2024/04/18 07:27:42;;;;;;;0.30;0.20;;;;;;;8.40;93.67;100219.63;5452659;26;20524;-47
2024/04/18 07:30:09;;;;;;;0.30;0.20;;;;;;;8.34;91.60;100225.03;5452864;26;20474;-47
2024/04/18 07:32:36;;;;;;;0.30;0.20;;;;;;;8.55;91.46;100216.66;5452977;26;20542;-48
2024/04/18 07:35:03;;;;;;;0.30;0.20;;;;;;;8.76;91.05;100214.44;5452719;26;20478;-47
2024/04/18 07:37:30;;;;;;;0.30;0.20;;;;;;;8.82;89.43;100219.59;5452976;26;21021;-47
2024/04/18 07:40:01;;;;;;;0.30;0.20;;;;;;;9.09;89.88;100232.22;5438581;26;20529;-47
2024/04/18 07:42:27;;;;;;;0.30;0.20;;;;;;;9.19;88.04;100227.59;5452796;26;20478;-48
2024/04/18 07:44:54;;;;;;;0.30;0.20;;;;;;;9.23;89.16;100231.03;5452691;26;20521;-48
2024/04/18 07:47:23;;;;;;;0.30;0.10;;;;;;;9.24;88.41;100228.34;5452808;26;20569;-47
2024/04/18 07:49:50;;;;;;;0.30;0.20;;;;;;;9.53;86.65;100229.41;5441057;26;21106;-48
2024/04/18 07:52:16;;;;;;;0.30;0.20;;;;;;;9.58;86.98;100236.31;5416905;26;20470;-48
2024/04/18 07:54:44;;;;;;;0.30;0.20;;;;;;;9.74;87.07;100232.38;5451210;26;20477;-47
2024/04/18 07:57:11;;;;;;;0.30;0.20;;;;;;;9.96;85.32;100239.75;5452719;26;20521;-48
2024/04/18 07:59:38;;;;;;;0.30;0.20;;;;;;;10.21;84.33;100248.84;5452536;26;20530;-48
2024/04/18 08:02:06;;;;;;;0.30;0.20;;;;;;;10.08;83.11;100255.38;5452621;26;20490;-48
2024/04/18 08:04:35;;;;;;;0.30;0.20;;;;;;;9.89;82.58;100254.13;5453046;26;21026;-48
2024/04/18 08:07:22;;;;;;;0.30;0.20;;;;;;;10.46;84.77;100258.78;5452381;26;20523;-48
2024/04/18 08:09:54;;;;;;;0.30;0.20;;;;;;;10.13;81.28;100261.41;5450719;26;20537;-49
2024/04/18 08:12:26;;;;;;;0.30;0.20;;;;;;;10.15;80.87;100258.75;5452248;26;20474;-47
2024/04/18 08:14:58;;;;;;;0.30;0.20;;;;;;;9.97;83.58;100270.72;5452910;26;20477;-48
2024/04/18 08:17:33;;;;;;;0.30;0.20;;;;;;;9.84;79.64;100270.16;5406048;26;20473;-48
2024/04/18 08:19:59;;;;;;;0.30;0.20;;;;;;;10.04;80.59;100277.63;5452108;26;20583;-49
2024/04/18 08:22:26;;;;;;;0.30;0.20;;;;;;;9.79;79.55;100280.03;5452366;26;20529;-48
2024/04/18 08:24:53;;;;;;;0.30;0.20;;;;;;;10.21;80.19;100285.13;5452089;26;20477;-48
2024/04/18 08:27:19;;;;;;;0.30;0.20;;;;;;;10.20;80.47;100286.91;5452095;26;20869;-48
2024/04/18 08:29:46;;;;;;;0.30;0.20;;;;;;;10.12;80.82;100293.34;5451726;26;20473;-48
2024/04/18 08:32:12;;;;;;;0.30;0.20;;;;;;;10.16;81.10;100298.53;5451292;26;20546;-47
2024/04/18 08:34:39;;;;;;;0.30;0.20;;;;;;;10.09;80.71;100305.78;5450712;26;20841;-48
2024/04/18 08:37:10;;;;;;;0.30;0.20;;;;;;;10.23;81.70;100308.09;5452305;26;20522;-48
2024/04/18 08:39:36;;;;;;;0.30;0.20;;;;;;;10.01;80.74;100307.78;5438472;26;20494;-48
2024/04/18 08:42:05;;;;;;;0.40;0.20;;;;;;;10.43;80.30;100306.72;5451866;26;20470;-48
2024/04/18 08:44:31;;;;;;;0.30;0.20;;;;;;;10.18;79.33;100314.44;5451707;26;20487;-48
2024/04/18 08:46:59;;;;;;;0.30;0.20;;;;;;;10.34;81.20;100305.16;5451897;26;20465;-48
2024/04/18 08:49:27;;;;;;;0.40;0.20;;;;;;;10.56;81.46;100308.09;5446082;26;20483;-48
2024/04/18 08:51:54;;;;;;;0.30;0.20;;;;;;;10.75;81.72;100305.78;5416087;26;20589;-48
2024/04/18 08:54:20;;;;;;;0.30;0.20;;;;;;;10.95;77.05;100303.41;5444089;26;21021;-48
2024/04/18 08:56:51;;;;;;;0.30;0.20;;;;;;;10.87;76.91;100300.97;5451772;26;20528;-48
2024/04/18 08:59:19;;;;;;;0.30;0.20;;;;;;;10.59;76.28;100303.56;5451525;26;20477;-48
2024/04/18 09:01:47;;;;;;;5.63;2.30;;;;;;;10.97;77.71;100301.59;5451756;26;20478;-48
2024/04/18 09:04:13;;;;;;;0.30;0.20;;;;;;;10.99;74.27;100307.72;5451105;26;20527;-48
2024/04/18 09:06:40;;;;;;;0.30;0.20;;;;;;;11.12;73.23;100310.88;5451614;26;20517;-48
2024/04/18 09:09:09;;;;;;;0.30;0.20;;;;;;;11.11;73.02;100309.16;5448768;26;20477;-48
2024/04/18 09:11:36;;;;;;;0.30;0.20;;;;;;;11.02;70.69;100317.41;5451529;26;20871;-48
2024/04/18 09:14:02;;;;;;;0.30;0.20;;;;;;;10.85;75.04;100316.13;5450909;26;20477;-48
2024/04/18 09:16:29;;;;;;;0.30;0.20;;;;;;;11.20;76.19;100317.69;5451531;26;20810;-48
2024/04/18 09:18:56;;;;;;;0.30;0.20;;;;;;;10.94;76.81;100325.59;5450940;26;20477;-49
2024/04/18 09:21:28;;;;;;;0.30;0.20;;;;;;;10.92;77.54;100319.44;5451462;26;20470;-48
2024/04/18 09:23:57;;;;;;;0.30;0.20;;;;;;;10.89;76.69;100332.84;5451193;26;20530;-48
2024/04/18 09:26:30;;;;;;;0.30;0.20;;;;;;;10.90;77.72;100323.94;5451164;26;21058;-48
2024/04/18 09:28:57;;;;;;;0.30;0.20;;;;;;;10.74;77.78;100331.50;5450811;26;20518;-49
2024/04/18 09:31:26;;;;;;;0.30;0.20;;;;;;;10.77;76.54;100335.84;5450865;26;20473;-48
2024/04/18 09:34:04;;;;;;;0.30;0.20;;;;;;;10.76;75.54;100340.31;5409842;26;20474;-48
2024/04/18 09:36:30;;;;;;;0.30;0.20;;;;;;;10.38;78.10;100347.53;5450691;26;20591;-47
2024/04/18 09:38:59;;;;;;;0.30;0.20;;;;;;;10.69;78.06;100346.72;5444235;26;20518;-49
2024/04/18 09:41:33;;;;;;;0.30;0.20;;;;;;;10.21;84.01;100351.53;5443070;26;20485;-48
2024/04/18 09:44:10;;;;;;;0.30;0.20;;;;;;;10.14;83.71;100350.81;5451547;26;20474;-48
2024/04/18 09:46:37;;;;;;;0.30;0.20;;;;;;;10.71;82.97;100360.84;5454489;26;20469;-47
2024/04/18 09:49:04;;;;;;;0.30;0.20;;;;;;;10.45;83.51;100364.22;5454775;26;20469;-48
2024/04/18 09:51:30;;;;;;;0.30;0.20;;;;;;;10.48;85.08;100364.13;5417291;26;20475;-48
2024/04/18 09:53:58;;;;;;;0.30;0.20;;;;;;;10.55;82.84;100371.03;5440931;26;20485;-48
2024/04/18 09:56:26;;;;;;;0.30;0.20;;;;;;;10.48;83.02;100374.75;5454233;26;20883;-48
2024/04/18 09:58:55;;;;;;;0.30;0.20;;;;;;;10.76;84.55;100369.53;5454370;26;20473;-48
2024/04/18 10:01:22;;;;;;;0.30;0.20;;;;;;;10.74;83.11;100374.03;5406662;26;20517;-48
2024/04/18 10:03:49;;;;;;;0.40;0.20;;;;;;;11.08;82.29;100371.28;5453664;26;20477;-48
2024/04/18 10:06:20;;;;;;;0.30;0.20;;;;;;;11.16;83.88;100371.94;5439016;26;20487;-49
2024/04/18 10:08:50;;;;;;;0.30;0.20;;;;;;;11.81;82.18;100371.72;5428426;26;20486;-48
2024/04/18 10:11:19;;;;;;;0.30;0.20;;;;;;;11.88;80.13;100375.03;5454126;26;20470;-48
2024/04/18 10:13:46;;;;;;;0.30;0.20;;;;;;;11.87;76.59;100365.31;5453786;26;20473;-49
2024/04/18 10:16:13;;;;;;;0.30;0.20;;;;;;;12.29;76.17;100364.78;5454054;26;20474;-48
2024/04/18 10:18:41;;;;;;;0.30;0.20;;;;;;;11.34;77.65;100378.47;5453858;26;20521;-48
2024/04/18 10:21:16;;;;;;;0.30;0.20;;;;;;;11.95;78.66;100368.59;5453938;26;20474;-48
2024/04/18 10:23:54;;;;;;;0.30;0.20;;;;;;;11.72;75.27;100373.75;5453808;26;20473;-48
2024/04/18 10:26:21;;;;;;;0.30;0.20;;;;;;;11.39;75.96;100375.69;5454147;26;21022;-48
2024/04/18 10:28:49;;;;;;;0.30;0.20;;;;;;;11.34;76.15;100378.47;5453799;26;20465;-48
2024/04/18 10:31:17;;;;;;;0.30;0.20;;;;;;;11.09;78.47;100377.47;5453842;26;20474;-48
2024/04/18 10:33:44;;;;;;;0.30;0.20;;;;;;;10.94;76.18;100382.31;5453512;26;20520;-49
2024/04/18 10:36:16;;;;;;;0.30;0.20;;;;;;;10.84;78.51;100394.16;5444060;26;20884;-48
2024/04/18 10:38:44;;;;;;;0.30;0.20;;;;;;;10.92;80.15;100394.78;5394823;26;20483;-48
2024/04/18 10:41:15;;;;;;;0.30;0.20;;;;;;;10.93;77.76;100393.88;5442712;26;21072;-48
2024/04/18 10:43:43;;;;;;;0.30;0.20;;;;;;;10.83;77.76;100403.03;5453466;26;20478;-48
2024/04/18 10:46:12;;;;;;;0.30;0.20;;;;;;;11.08;75.07;100399.66;5453142;26;20474;-48
2024/04/18 10:48:40;;;;;;;0.30;0.20;;;;;;;10.98;72.39;100389.31;5453686;26;20486;-48
2024/04/18 10:51:07;;;;;;;0.30;0.20;;;;;;;10.92;72.61;100397.44;5423088;26;21077;-48
2024/04/18 10:53:35;;;;;;;0.30;0.20;;;;;;;11.45;73.61;100400.31;5417632;26;21079;-48
2024/04/18 10:56:02;;;;;;;0.30;0.20;;;;;;;11.47;70.10;100403.81;5445238;26;20474;-48
2024/04/18 10:58:28;;;;;;;0.30;0.20;;;;;;;11.64;75.87;100405.06;5453459;26;20470;-48
2024/04/18 11:00:58;;;;;;;0.30;0.20;;;;;;;11.77;72.91;100409.97;5453376;26;20583;-48
2024/04/18 11:03:28;;;;;;;0.30;0.20;;;;;;;11.27;76.83;100414.19;5453235;26;20534;-48
2024/04/18 11:05:56;;;;;;;0.30;0.20;;;;;;;10.96;79.91;100416.84;5447220;26;20581;-48
2024/04/18 11:08:26;;;;;;;0.30;0.20;;;;;;;10.67;81.26;100418.50;5437299;26;21013;-48
2024/04/18 11:10:57;;;;;;;0.30;0.20;;;;;;;10.37;80.22;100419.31;5453135;26;20575;-49
2024/04/18 11:13:24;;;;;;;0.30;0.20;;;;;;;10.44;83.44;100412.09;5453318;26;20462;-48
2024/04/18 11:15:51;;;;;;;0.30;0.20;;;;;;;10.71;84.80;100413.13;5453018;26;20518;-48
2024/04/18 11:18:18;;;;;;;0.30;0.20;;;;;;;11.09;83.69;100418.22;5453218;26;20469;-48
2024/04/18 11:20:45;;;;;;;0.30;0.20;;;;;;;11.18;81.01;100410.00;5453075;26;20481;-49
2024/04/18 11:23:11;;;;;;;0.30;0.20;;;;;;;11.32;77.78;100398.94;5453267;26;20530;-49
2024/04/18 11:25:41;;;;;;;0.30;0.20;;;;;;;11.62;77.91;100406.91;5452958;26;20537;-49
2024/04/18 11:28:09;;;;;;;0.30;0.20;;;;;;;11.46;77.05;100406.53;5453028;26;20481;-49
2024/04/18 11:30:41;;;;;;;0.30;0.20;;;;;;;11.82;75.79;100413.41;5453067;26;20525;-49
2024/04/18 11:33:12;;;;;;;0.30;0.20;;;;;;;11.31;77.74;100413.19;5452736;26;20542;-48
2024/04/18 11:35:39;;;;;;;0.30;0.20;;;;;;;11.66;77.32;100403.25;5451558;26;20473;-48